sensor_id;sensor_type;location;lat;lon;timestamp;pressure;altitude;pressure_sealevel;temperature;humidity
41202;BME280;26936;50.524;8.684;2023-11-21T00:00:48;98706.84;;;8.46;100.00
41202;BME280;26936;50.524;8.684;2023-11-21T00:03:14;98703.06;;;8.40;100.00
41202;BME280;26936;50.524;8.684;2023-11-21T00:05:40;98705.09;;;8.61;100.00
41202;BME280;26936;50.524;8.684;2023-11-21T00:08:06;98697.63;;;8.46;100.00
41202;BME280;26936;50.524;8.684;2023-11-21T00:10:32;98709.19;;;8.48;100.00
41202;BME280;26936;50.524;8.684;2023-11-21T00:12:57;98697.63;;;8.46;100.00
41202;BME280;26936;50.524;8.684;2023-11-21T00:15:22;98697.97;;;8.48;100.00
41202;BME280;26936;50.524;8.684;2023-11-21T00:17:48;98696.47;;;8.56;100.00
41202;BME280;26936;50.524;8.684;2023-11-21T00:20:13;98704.22;;;8.52;100.00
41202;BME280;26936;50.524;8.684;2023-11-21T00:22:38;98694.03;;;8.45;100.00
41202;BME280;26936;50.524;8.684;2023-11-21T00:25:05;98692.00;;;8.46;100.00
41202;BME280;26936;50.524;8.684;2023-11-21T00:27:31;98694.34;;;8.47;100.00
41202;BME280;26936;50.524;8.684;2023-11-21T00:29:56;98700.88;;;8.44;100.00
41202;BME280;26936;50.524;8.684;2023-11-21T00:32:21;98706.28;;;8.39;100.00
41202;BME280;26936;50.524;8.684;2023-11-21T00:34:47;98713.34;;;8.43;100.00
41202;BME280;26936;50.524;8.684;2023-11-21T00:37:12;98705.34;;;8.54;100.00
41202;BME280;26936;50.524;8.684;2023-11-21T00:39:37;98709.06;;;8.94;100.00
41202;BME280;26936;50.524;8.684;2023-11-21T00:42:03;98706.53;;;8.66;100.00
41202;BME280;26936;50.524;8.684;2023-11-21T00:44:30;98710.13;;;8.66;100.00
41202;BME280;26936;50.524;8.684;2023-11-21T00:46:55;98705.41;;;8.63;100.00
41202;BME280;26936;50.524;8.684;2023-11-21T00:49:20;98706.88;;;8.68;100.00
41202;BME280;26936;50.524;8.684;2023-11-21T00:51:46;98709.53;;;8.50;100.00
41202;BME280;26936;50.524;8.684;2023-11-21T00:54:11;98709.66;;;8.46;100.00
41202;BME280;26936;50.524;8.684;2023-11-21T00:56:37;98714.47;;;8.46;100.00
41202;BME280;26936;50.524;8.684;2023-11-21T00:59:02;98715.72;;;8.45;100.00
41202;BME280;26936;50.524;8.684;2023-11-21T01:01:30;98719.56;;;8.81;100.00
41202;BME280;26936;50.524;8.684;2023-11-21T01:03:55;98719.53;;;8.94;100.00
41202;BME280;26936;50.524;8.684;2023-11-21T01:06:20;98711.75;;;8.98;100.00
41202;BME280;26936;50.524;8.684;2023-11-21T01:08:46;98718.59;;;8.75;100.00
41202;BME280;26936;50.524;8.684;2023-11-21T01:11:11;98722.81;;;8.58;100.00
41202;BME280;26936;50.524;8.684;2023-11-21T01:13:38;98728.78;;;8.60;100.00
41202;BME280;26936;50.524;8.684;2023-11-21T01:16:04;98729.31;;;8.89;100.00
41202;BME280;26936;50.524;8.684;2023-11-21T01:18:31;98733.22;;;8.70;100.00
41202;BME280;26936;50.524;8.684;2023-11-21T01:20:56;98744.84;;;8.60;100.00
41202;BME280;26936;50.524;8.684;2023-11-21T01:23:22;98735.22;;;8.48;100.00
41202;BME280;26936;50.524;8.684;2023-11-21T01:25:48;98739.22;;;8.60;100.00
41202;BME280;26936;50.524;8.684;2023-11-21T01:28:13;98731.59;;;8.82;100.00
41202;BME280;26936;50.524;8.684;2023-11-21T01:30:38;98736.50;;;8.69;100.00
41202;BME280;26936;50.524;8.684;2023-11-21T01:33:04;98730.03;;;8.59;100.00
41202;BME280;26936;50.524;8.684;2023-11-21T01:35:29;98741.50;;;8.52;100.00
41202;BME280;26936;50.524;8.684;2023-11-21T01:37:55;98738.16;;;8.45;100.00
41202;BME280;26936;50.524;8.684;2023-11-21T01:40:20;98742.03;;;8.81;100.00
41202;BME280;26936;50.524;8.684;2023-11-21T01:42:46;98742.69;;;8.64;100.00
41202;BME280;26936;50.524;8.684;2023-11-21T01:45:12;98736.69;;;8.74;100.00
41202;BME280;26936;50.524;8.684;2023-11-21T01:47:38;98743.16;;;8.84;100.00
41202;BME280;26936;50.524;8.684;2023-11-21T01:50:07;98749.31;;;8.57;100.00
41202;BME280;26936;50.524;8.684;2023-11-21T01:52:35;98747.34;;;8.45;100.00
41202;BME280;26936;50.524;8.684;2023-11-21T01:55:01;98753.56;;;8.40;100.00
41202;BME280;26936;50.524;8.684;2023-11-21T01:57:27;98755.13;;;8.41;100.00
41202;BME280;26936;50.524;8.684;2023-11-21T01:59:54;98761.53;;;8.42;100.00
41202;BME280;26936;50.524;8.684;2023-11-21T02:02:19;98758.03;;;8.38;100.00
41202;BME280;26936;50.524;8.684;2023-11-21T02:04:45;98764.31;;;8.76;100.00
41202;BME280;26936;50.524;8.684;2023-11-21T02:07:11;98764.38;;;8.85;100.00
41202;BME280;26936;50.524;8.684;2023-11-21T02:09:36;98758.63;;;8.88;100.00
41202;BME280;26936;50.524;8.684;2023-11-21T02:12:07;98763.41;;;8.79;100.00
41202;BME280;26936;50.524;8.684;2023-11-21T02:14:34;98758.16;;;8.68;100.00
41202;BME280;26936;50.524;8.684;2023-11-21T02:16:59;98756.84;;;8.60;100.00
41202;BME280;26936;50.524;8.684;2023-11-21T02:19:26;98762.78;;;8.62;100.00
41202;BME280;26936;50.524;8.684;2023-11-21T02:21:52;98757.09;;;8.53;100.00
41202;BME280;26936;50.524;8.684;2023-11-21T02:24:22;98759.84;;;8.66;100.00
41202;BME280;26936;50.524;8.684;2023-11-21T02:26:48;98759.84;;;8.66;100.00
41202;BME280;26936;50.524;8.684;2023-11-21T02:29:19;98763.06;;;8.77;100.00
41202;BME280;26936;50.524;8.684;2023-11-21T02:31:47;98758.88;;;8.81;100.00
41202;BME280;26936;50.524;8.684;2023-11-21T02:34:14;98767.25;;;8.72;100.00
41202;BME280;26936;50.524;8.684;2023-11-21T02:36:40;98763.66;;;8.72;100.00
41202;BME280;26936;50.524;8.684;2023-11-21T02:39:05;98769.81;;;8.79;100.00
41202;BME280;26936;50.524;8.684;2023-11-21T02:41:32;98770.56;;;8.80;100.00
41202;BME280;26936;50.524;8.684;2023-11-21T02:44:00;98767.56;;;8.74;100.00
41202;BME280;26936;50.524;8.684;2023-11-21T02:46:25;98769.13;;;8.75;100.00
41202;BME280;26936;50.524;8.684;2023-11-21T02:48:51;98764.47;;;8.94;100.00
41202;BME280;26936;50.524;8.684;2023-11-21T02:51:19;98763.34;;;8.91;100.00
41202;BME280;26936;50.524;8.684;2023-11-21T02:53:44;98771.44;;;8.68;100.00
41202;BME280;26936;50.524;8.684;2023-11-21T02:56:11;98775.00;;;8.68;100.00
41202;BME280;26936;50.524;8.684;2023-11-21T02:58:40;98771.88;;;8.66;100.00
41202;BME280;26936;50.524;8.684;2023-11-21T03:01:06;98778.97;;;8.92;100.00
41202;BME280;26936;50.524;8.684;2023-11-21T03:03:32;98774.06;;;8.71;100.00
41202;BME280;26936;50.524;8.684;2023-11-21T03:05:57;98776.75;;;8.75;100.00
41202;BME280;26936;50.524;8.684;2023-11-21T03:08:23;98780.41;;;8.63;100.00
41202;BME280;26936;50.524;8.684;2023-11-21T03:10:49;98784.41;;;8.74;100.00
41202;BME280;26936;50.524;8.684;2023-11-21T03:13:14;98776.75;;;8.53;100.00
41202;BME280;26936;50.524;8.684;2023-11-21T03:15:39;98780.59;;;8.47;100.00
41202;BME280;26936;50.524;8.684;2023-11-21T03:18:05;98781.91;;;8.55;100.00
41202;BME280;26936;50.524;8.684;2023-11-21T03:20:30;98792.75;;;8.65;100.00
41202;BME280;26936;50.524;8.684;2023-11-21T03:22:55;98789.94;;;8.65;100.00
41202;BME280;26936;50.524;8.684;2023-11-21T03:25:21;98788.28;;;8.55;100.00
41202;BME280;26936;50.524;8.684;2023-11-21T03:27:48;98796.41;;;8.53;100.00
41202;BME280;26936;50.524;8.684;2023-11-21T03:30:14;98802.72;;;8.79;100.00
41202;BME280;26936;50.524;8.684;2023-11-21T03:32:39;98808.94;;;8.61;100.00
41202;BME280;26936;50.524;8.684;2023-11-21T03:35:04;98807.00;;;8.71;100.00
41202;BME280;26936;50.524;8.684;2023-11-21T03:37:31;98810.75;;;8.55;100.00
41202;BME280;26936;50.524;8.684;2023-11-21T03:39:56;98817.66;;;8.76;100.00
41202;BME280;26936;50.524;8.684;2023-11-21T03:42:21;98816.56;;;8.61;100.00
41202;BME280;26936;50.524;8.684;2023-11-21T03:44:47;98823.56;;;8.56;100.00
41202;BME280;26936;50.524;8.684;2023-11-21T03:47:12;98817.47;;;8.58;100.00
41202;BME280;26936;50.524;8.684;2023-11-21T03:49:37;98816.81;;;8.54;100.00
41202;BME280;26936;50.524;8.684;2023-11-21T03:52:03;98817.09;;;8.68;100.00
41202;BME280;26936;50.524;8.684;2023-11-21T03:54:28;98809.72;;;8.62;100.00
41202;BME280;26936;50.524;8.684;2023-11-21T03:56:53;98818.50;;;8.51;100.00
41202;BME280;26936;50.524;8.684;2023-11-21T03:59:19;98815.63;;;8.30;100.00
41202;BME280;26936;50.524;8.684;2023-11-21T04:01:44;98815.75;;;8.26;100.00
41202;BME280;26936;50.524;8.684;2023-11-21T04:04:09;98825.06;;;8.23;100.00
41202;BME280;26936;50.524;8.684;2023-11-21T04:06:34;98814.56;;;8.49;100.00
41202;BME280;26936;50.524;8.684;2023-11-21T04:09:01;98827.31;;;8.28;100.00
41202;BME280;26936;50.524;8.684;2023-11-21T04:11:26;98828.84;;;8.16;100.00
41202;BME280;26936;50.524;8.684;2023-11-21T04:13:53;98823.47;;;8.22;100.00
41202;BME280;26936;50.524;8.684;2023-11-21T04:16:18;98835.25;;;8.04;100.00
41202;BME280;26936;50.524;8.684;2023-11-21T04:18:44;98826.50;;;8.02;100.00
41202;BME280;26936;50.524;8.684;2023-11-21T04:21:09;98830.41;;;8.05;100.00
41202;BME280;26936;50.524;8.684;2023-11-21T04:23:35;98830.41;;;8.17;100.00
41202;BME280;26936;50.524;8.684;2023-11-21T04:26:00;98832.56;;;8.26;100.00
41202;BME280;26936;50.524;8.684;2023-11-21T04:28:27;98833.09;;;8.21;100.00
41202;BME280;26936;50.524;8.684;2023-11-21T04:30:52;98838.75;;;8.34;100.00
41202;BME280;26936;50.524;8.684;2023-11-21T04:33:17;98837.94;;;8.08;100.00
41202;BME280;26936;50.524;8.684;2023-11-21T04:35:43;98853.63;;;8.18;100.00
41202;BME280;26936;50.524;8.684;2023-11-21T04:38:08;98850.03;;;8.17;100.00
41202;BME280;26936;50.524;8.684;2023-11-21T04:40:33;98857.38;;;8.27;100.00
41202;BME280;26936;50.524;8.684;2023-11-21T04:42:58;98866.56;;;8.28;100.00
41202;BME280;26936;50.524;8.684;2023-11-21T04:45:24;98873.28;;;8.05;100.00
41202;BME280;26936;50.524;8.684;2023-11-21T04:47:49;98879.56;;;8.09;100.00
41202;BME280;26936;50.524;8.684;2023-11-21T04:50:15;98888.75;;;8.10;100.00
41202;BME280;26936;50.524;8.684;2023-11-21T04:52:43;98885.25;;;8.06;100.00
41202;BME280;26936;50.524;8.684;2023-11-21T04:55:08;98891.53;;;7.85;100.00
41202;BME280;26936;50.524;8.684;2023-11-21T04:57:38;98889.47;;;7.60;100.00
41202;BME280;26936;50.524;8.684;2023-11-21T05:00:05;98886.91;;;7.78;100.00
41202;BME280;26936;50.524;8.684;2023-11-21T05:02:34;98894.28;;;7.60;100.00
41202;BME280;26936;50.524;8.684;2023-11-21T05:05:00;98898.28;;;7.87;100.00
41202;BME280;26936;50.524;8.684;2023-11-21T05:07:25;98898.16;;;7.91;100.00
41202;BME280;26936;50.524;8.684;2023-11-21T05:09:54;98895.03;;;7.89;100.00
41202;BME280;26936;50.524;8.684;2023-11-21T05:12:19;98891.06;;;7.86;100.00
41202;BME280;26936;50.524;8.684;2023-11-21T05:14:44;98901.06;;;7.75;100.00
41202;BME280;26936;50.524;8.684;2023-11-21T05:17:10;98896.66;;;7.74;100.00
41202;BME280;26936;50.524;8.684;2023-11-21T05:19:35;98900.47;;;7.67;100.00
41202;BME280;26936;50.524;8.684;2023-11-21T05:22:00;98893.22;;;7.70;100.00
41202;BME280;26936;50.524;8.684;2023-11-21T05:24:26;98906.34;;;7.98;100.00
41202;BME280;26936;50.524;8.684;2023-11-21T05:26:51;98907.47;;;7.88;100.00
41202;BME280;26936;50.524;8.684;2023-11-21T05:29:17;98915.63;;;7.70;100.00
41202;BME280;26936;50.524;8.684;2023-11-21T05:31:43;98929.75;;;7.79;100.00
41202;BME280;26936;50.524;8.684;2023-11-21T05:34:08;98933.13;;;7.86;100.00
41202;BME280;26936;50.524;8.684;2023-11-21T05:36:33;98938.75;;;7.86;100.00
41202;BME280;26936;50.524;8.684;2023-11-21T05:38:58;98937.75;;;7.93;100.00
41202;BME280;26936;50.524;8.684;2023-11-21T05:41:24;98944.88;;;7.69;100.00
41202;BME280;26936;50.524;8.684;2023-11-21T05:43:50;98948.38;;;7.85;100.00
41202;BME280;26936;50.524;8.684;2023-11-21T05:46:16;98945.03;;;7.78;100.00
41202;BME280;26936;50.524;8.684;2023-11-21T05:48:41;98946.59;;;7.79;100.00
41202;BME280;26936;50.524;8.684;2023-11-21T05:51:07;98944.47;;;7.83;100.00
41202;BME280;26936;50.524;8.684;2023-11-21T05:53:33;98947.81;;;7.78;100.00
41202;BME280;26936;50.524;8.684;2023-11-21T05:55:59;98954.81;;;7.98;100.00
41202;BME280;26936;50.524;8.684;2023-11-21T05:58:24;98964.88;;;7.83;100.00
41202;BME280;26936;50.524;8.684;2023-11-21T06:00:49;98954.72;;;7.61;100.00
41202;BME280;26936;50.524;8.684;2023-11-21T06:03:14;98959.19;;;7.58;100.00
41202;BME280;26936;50.524;8.684;2023-11-21T06:05:42;98962.28;;;7.76;100.00
41202;BME280;26936;50.524;8.684;2023-11-21T06:08:08;98969.72;;;7.83;100.00
41202;BME280;26936;50.524;8.684;2023-11-21T06:10:33;98969.25;;;7.84;100.00
41202;BME280;26936;50.524;8.684;2023-11-21T06:12:59;98968.31;;;7.46;100.00
41202;BME280;26936;50.524;8.684;2023-11-21T06:15:24;98978.84;;;7.71;100.00
41202;BME280;26936;50.524;8.684;2023-11-21T06:17:49;98972.75;;;7.60;100.00
41202;BME280;26936;50.524;8.684;2023-11-21T06:20:18;98978.81;;;7.58;100.00
41202;BME280;26936;50.524;8.684;2023-11-21T06:22:45;98985.19;;;7.59;100.00
41202;BME280;26936;50.524;8.684;2023-11-21T06:25:11;98984.56;;;7.39;100.00
41202;BME280;26936;50.524;8.684;2023-11-21T06:27:39;98988.69;;;7.63;100.00
41202;BME280;26936;50.524;8.684;2023-11-21T06:30:06;98995.09;;;7.47;100.00
41202;BME280;26936;50.524;8.684;2023-11-21T06:32:32;98998.56;;;7.67;100.00
41202;BME280;26936;50.524;8.684;2023-11-21T06:34:58;98997.00;;;7.66;100.00
41202;BME280;26936;50.524;8.684;2023-11-21T06:37:27;99003.94;;;7.62;100.00
41202;BME280;26936;50.524;8.684;2023-11-21T06:39:52;98992.44;;;7.44;100.00
41202;BME280;26936;50.524;8.684;2023-11-21T06:42:18;99007.38;;;7.53;100.00
41202;BME280;26936;50.524;8.684;2023-11-21T06:44:45;98997.53;;;7.61;100.00
41202;BME280;26936;50.524;8.684;2023-11-21T06:47:10;99000.97;;;7.53;100.00
41202;BME280;26936;50.524;8.684;2023-11-21T06:49:35;98996.34;;;7.46;100.00
41202;BME280;26936;50.524;8.684;2023-11-21T06:52:01;99012.88;;;7.57;100.00
41202;BME280;26936;50.524;8.684;2023-11-21T06:54:28;99021.28;;;7.57;100.00
41202;BME280;26936;50.524;8.684;2023-11-21T06:56:54;99022.28;;;7.50;100.00
41202;BME280;26936;50.524;8.684;2023-11-21T06:59:19;99022.97;;;7.38;100.00
41202;BME280;26936;50.524;8.684;2023-11-21T07:01:44;99017.13;;;7.33;100.00
41202;BME280;26936;50.524;8.684;2023-11-21T07:04:10;99026.84;;;7.28;100.00
41202;BME280;26936;50.524;8.684;2023-11-21T07:06:35;99038.31;;;7.34;100.00
41202;BME280;26936;50.524;8.684;2023-11-21T07:09:00;99036.47;;;7.27;100.00
41202;BME280;26936;50.524;8.684;2023-11-21T07:11:27;99042.53;;;7.26;100.00
41202;BME280;26936;50.524;8.684;2023-11-21T07:13:52;99047.31;;;7.25;100.00
41202;BME280;26936;50.524;8.684;2023-11-21T07:16:18;99056.75;;;7.47;100.00
41202;BME280;26936;50.524;8.684;2023-11-21T07:18:44;99067.09;;;7.34;100.00
41202;BME280;26936;50.524;8.684;2023-11-21T07:21:09;99064.06;;;7.29;100.00
41202;BME280;26936;50.524;8.684;2023-11-21T07:23:37;99071.06;;;7.21;100.00
41202;BME280;26936;50.524;8.684;2023-11-21T07:26:02;99075.25;;;7.29;100.00
41202;BME280;26936;50.524;8.684;2023-11-21T07:28:28;99086.28;;;7.36;100.00
41202;BME280;26936;50.524;8.684;2023-11-21T07:30:53;99086.53;;;7.41;100.00
41202;BME280;26936;50.524;8.684;2023-11-21T07:33:19;99095.88;;;7.67;100.00
41202;BME280;26936;50.524;8.684;2023-11-21T07:35:44;99095.00;;;7.70;100.00
41202;BME280;26936;50.524;8.684;2023-11-21T07:38:10;99094.31;;;7.66;100.00
41202;BME280;26936;50.524;8.684;2023-11-21T07:40:35;99095.88;;;7.51;100.00
41202;BME280;26936;50.524;8.684;2023-11-21T07:43:00;99087.28;;;7.74;100.00
41202;BME280;26936;50.524;8.684;2023-11-21T07:45:26;99090.13;;;7.86;100.00
41202;BME280;26936;50.524;8.684;2023-11-21T07:47:53;99095.78;;;7.70;100.00
41202;BME280;26936;50.524;8.684;2023-11-21T07:50:19;99101.16;;;7.93;100.00
41202;BME280;26936;50.524;8.684;2023-11-21T07:52:45;99096.88;;;7.89;100.00
41202;BME280;26936;50.524;8.684;2023-11-21T07:55:13;99103.53;;;7.95;100.00
41202;BME280;26936;50.524;8.684;2023-11-21T07:57:39;99105.44;;;7.98;100.00
41202;BME280;26936;50.524;8.684;2023-11-21T08:00:05;99110.50;;;8.03;100.00
41202;BME280;26936;50.524;8.684;2023-11-21T08:02:34;99111.50;;;7.96;100.00
41202;BME280;26936;50.524;8.684;2023-11-21T08:04:59;99121.69;;;7.90;100.00
41202;BME280;26936;50.524;8.684;2023-11-21T08:07:25;99118.97;;;7.87;100.00
41202;BME280;26936;50.524;8.684;2023-11-21T08:09:51;99118.88;;;7.90;100.00
41202;BME280;26936;50.524;8.684;2023-11-21T08:12:16;99138.84;;;7.92;100.00
41202;BME280;26936;50.524;8.684;2023-11-21T08:14:45;99128.25;;;7.84;100.00
41202;BME280;26936;50.524;8.684;2023-11-21T08:17:10;99133.97;;;7.80;100.00
41202;BME280;26936;50.524;8.684;2023-11-21T08:19:36;99129.69;;;7.76;100.00
41202;BME280;26936;50.524;8.684;2023-11-21T08:22:03;99138.34;;;7.81;100.00
41202;BME280;26936;50.524;8.684;2023-11-21T08:24:28;99142.78;;;7.95;100.00
41202;BME280;26936;50.524;8.684;2023-11-21T08:26:55;99139.56;;;7.80;100.00
41202;BME280;26936;50.524;8.684;2023-11-21T08:29:24;99140.00;;;7.79;100.00
41202;BME280;26936;50.524;8.684;2023-11-21T08:31:50;99149.63;;;7.94;100.00
41202;BME280;26936;50.524;8.684;2023-11-21T08:34:16;99139.09;;;7.98;100.00
41202;BME280;26936;50.524;8.684;2023-11-21T08:36:42;99140.38;;;7.81;100.00
41202;BME280;26936;50.524;8.684;2023-11-21T08:39:08;99147.81;;;7.87;100.00
41202;BME280;26936;50.524;8.684;2023-11-21T08:51:51;99157.28;;;8.22;100.00
41202;BME280;26936;50.524;8.684;2023-11-21T08:54:16;99151.06;;;8.14;100.00
41202;BME280;26936;50.524;8.684;2023-11-21T08:56:44;99153.06;;;8.59;100.00
41202;BME280;26936;50.524;8.684;2023-11-21T08:59:13;99144.63;;;8.59;100.00
41202;BME280;26936;50.524;8.684;2023-11-21T09:01:39;99156.28;;;8.86;100.00
41202;BME280;26936;50.524;8.684;2023-11-21T09:04:05;99163.81;;;9.01;100.00
41202;BME280;26936;50.524;8.684;2023-11-21T09:06:39;99163.03;;;9.01;100.00
41202;BME280;26936;50.524;8.684;2023-11-21T09:09:05;99172.94;;;9.43;100.00
41202;BME280;26936;50.524;8.684;2023-11-21T09:11:32;99164.16;;;9.16;100.00
41202;BME280;26936;50.524;8.684;2023-11-21T09:16:47;99162.03;;;9.32;100.00
41202;BME280;26936;50.524;8.684;2023-11-21T09:19:13;99160.13;;;9.42;100.00
41202;BME280;26936;50.524;8.684;2023-11-21T09:21:53;99173.84;;;9.27;100.00
41202;BME280;26936;50.524;8.684;2023-11-21T09:24:24;99179.22;;;9.09;100.00
41202;BME280;26936;50.524;8.684;2023-11-21T09:27:04;99194.47;;;8.96;100.00
41202;BME280;26936;50.524;8.684;2023-11-21T09:29:30;99201.88;;;8.90;100.00
41202;BME280;26936;50.524;8.684;2023-11-21T09:32:03;99200.72;;;8.75;100.00
41202;BME280;26936;50.524;8.684;2023-11-21T09:34:32;99206.03;;;8.85;100.00
41202;BME280;26936;50.524;8.684;2023-11-21T09:36:58;99220.38;;;9.28;100.00
41202;BME280;26936;50.524;8.684;2023-11-21T09:39:23;99207.00;;;9.32;100.00
41202;BME280;26936;50.524;8.684;2023-11-21T09:41:57;99216.88;;;9.49;100.00
41202;BME280;26936;50.524;8.684;2023-11-21T09:47:17;99216.13;;;9.49;100.00
41202;BME280;26936;50.524;8.684;2023-11-21T09:49:48;99208.69;;;9.42;100.00
41202;BME280;26936;50.524;8.684;2023-11-21T09:52:32;99217.63;;;10.00;100.00
41202;BME280;26936;50.524;8.684;2023-11-21T09:54:58;99221.25;;;10.01;100.00
41202;BME280;26936;50.524;8.684;2023-11-21T09:57:26;99215.31;;;9.86;100.00
41202;BME280;26936;50.524;8.684;2023-11-21T09:59:54;99217.59;;;9.79;100.00
41202;BME280;26936;50.524;8.684;2023-11-21T10:02:27;99220.94;;;9.86;100.00
41202;BME280;26936;50.524;8.684;2023-11-21T10:04:58;99227.25;;;9.90;100.00
41202;BME280;26936;50.524;8.684;2023-11-21T10:07:28;99227.25;;;9.65;100.00
41202;BME280;26936;50.524;8.684;2023-11-21T10:09:54;99230.97;;;9.75;100.00
41202;BME280;26936;50.524;8.684;2023-11-21T10:12:21;99235.56;;;9.81;100.00
41202;BME280;26936;50.524;8.684;2023-11-21T10:14:49;99237.91;;;9.95;100.00
41202;BME280;26936;50.524;8.684;2023-11-21T10:17:17;99226.22;;;10.09;100.00
41202;BME280;26936;50.524;8.684;2023-11-21T10:19:46;99241.28;;;10.03;100.00
41202;BME280;26936;50.524;8.684;2023-11-21T10:22:12;99240.84;;;9.92;100.00
41202;BME280;26936;50.524;8.684;2023-11-21T10:24:40;99240.16;;;9.62;100.00
41202;BME280;26936;50.524;8.684;2023-11-21T10:27:08;99246.56;;;10.01;100.00
41202;BME280;26936;50.524;8.684;2023-11-21T10:29:42;99243.63;;;10.17;100.00
41202;BME280;26936;50.524;8.684;2023-11-21T10:32:07;99249.38;;;10.01;100.00
41202;BME280;26936;50.524;8.684;2023-11-21T10:34:33;99247.34;;;9.89;100.00
41202;BME280;26936;50.524;8.684;2023-11-21T10:37:01;99247.56;;;10.07;100.00
41202;BME280;26936;50.524;8.684;2023-11-21T10:39:35;99245.22;;;10.05;100.00
41202;BME280;26936;50.524;8.684;2023-11-21T10:42:01;99248.03;;;10.18;100.00
41202;BME280;26936;50.524;8.684;2023-11-21T10:44:26;99246.69;;;9.97;100.00
41202;BME280;26936;50.524;8.684;2023-11-21T10:46:54;99250.72;;;10.21;100.00
41202;BME280;26936;50.524;8.684;2023-11-21T10:49:27;99255.56;;;10.21;100.00
41202;BME280;26936;50.524;8.684;2023-11-21T10:51:55;99256.09;;;10.41;100.00
41202;BME280;26936;50.524;8.684;2023-11-21T10:54:21;99254.44;;;10.31;100.00
41202;BME280;26936;50.524;8.684;2023-11-21T10:56:49;99253.75;;;10.61;100.00
41202;BME280;26936;50.524;8.684;2023-11-21T10:59:30;99258.41;;;10.55;100.00
41202;BME280;26936;50.524;8.684;2023-11-21T11:01:57;99257.72;;;10.85;99.99
41202;BME280;26936;50.524;8.684;2023-11-21T11:04:25;99259.34;;;10.95;100.00
41202;BME280;26936;50.524;8.684;2023-11-21T11:06:55;99257.72;;;11.07;99.19
41202;BME280;26936;50.524;8.684;2023-11-21T11:09:22;99255.63;;;10.98;98.98
41202;BME280;26936;50.524;8.684;2023-11-21T11:11:48;99253.31;;;10.62;100.00
41202;BME280;26936;50.524;8.684;2023-11-21T11:14:14;99261.66;;;10.87;100.00
41202;BME280;26936;50.524;8.684;2023-11-21T11:16:40;99259.28;;;10.64;100.00
41202;BME280;26936;50.524;8.684;2023-11-21T11:19:10;99251.56;;;10.99;99.70
41202;BME280;26936;50.524;8.684;2023-11-21T11:32:43;99254.53;;;10.95;98.34
41202;BME280;26936;50.524;8.684;2023-11-21T11:35:33;99252.28;;;11.12;96.34
41202;BME280;26936;50.524;8.684;2023-11-21T11:38:02;99259.19;;;10.89;97.81
41202;BME280;26936;50.524;8.684;2023-11-21T11:40:45;99266.88;;;10.98;98.88
41202;BME280;26936;50.524;8.684;2023-11-21T11:43:10;99267.63;;;11.11;98.35
41202;BME280;26936;50.524;8.684;2023-11-21T11:45:37;99253.72;;;11.17;98.29
41202;BME280;26936;50.524;8.684;2023-11-21T11:48:07;99268.34;;;10.81;98.69
41202;BME280;26936;50.524;8.684;2023-11-21T11:50:42;99268.59;;;10.74;100.00
41202;BME280;26936;50.524;8.684;2023-11-21T11:53:14;99264.53;;;10.75;100.00
41202;BME280;26936;50.524;8.684;2023-11-21T11:55:40;99263.81;;;10.62;100.00
41202;BME280;26936;50.524;8.684;2023-11-21T11:58:07;99260.94;;;10.74;100.00
41202;BME280;26936;50.524;8.684;2023-11-21T12:03:01;99253.44;;;10.59;100.00
41202;BME280;26936;50.524;8.684;2023-11-21T12:05:31;99252.38;;;10.65;100.00
41202;BME280;26936;50.524;8.684;2023-11-21T12:08:09;99261.09;;;10.58;100.00
41202;BME280;26936;50.524;8.684;2023-11-21T12:10:36;99267.66;;;10.55;100.00
41202;BME280;26936;50.524;8.684;2023-11-21T12:13:06;99256.97;;;10.72;100.00
41202;BME280;26936;50.524;8.684;2023-11-21T12:15:37;99266.34;;;10.69;100.00
41202;BME280;26936;50.524;8.684;2023-11-21T12:18:04;99258.63;;;10.60;100.00
41202;BME280;26936;50.524;8.684;2023-11-21T12:20:30;99262.94;;;10.74;100.00
41202;BME280;26936;50.524;8.684;2023-11-21T12:22:57;99263.22;;;10.88;100.00
41202;BME280;26936;50.524;8.684;2023-11-21T12:25:30;99268.72;;;10.92;100.00
41202;BME280;26936;50.524;8.684;2023-11-21T12:27:58;99273.88;;;11.06;100.00
41202;BME280;26936;50.524;8.684;2023-11-21T12:30:25;99266.88;;;10.98;100.00
41202;BME280;26936;50.524;8.684;2023-11-21T12:32:54;99266.84;;;11.11;99.29
41202;BME280;26936;50.524;8.684;2023-11-21T12:35:23;99268.09;;;10.88;100.00
41202;BME280;26936;50.524;8.684;2023-11-21T12:37:49;99275.63;;;11.13;100.00
41202;BME280;26936;50.524;8.684;2023-11-21T12:40:16;99278.13;;;11.32;100.00
41202;BME280;26936;50.524;8.684;2023-11-21T12:42:43;99284.22;;;11.09;100.00
41202;BME280;26936;50.524;8.684;2023-11-21T12:45:19;99286.97;;;11.00;100.00
41202;BME280;26936;50.524;8.684;2023-11-21T12:47:47;99286.13;;;11.12;100.00
41202;BME280;26936;50.524;8.684;2023-11-21T12:50:22;99284.72;;;11.17;99.87
41202;BME280;26936;50.524;8.684;2023-11-21T12:52:54;99291.16;;;10.61;100.00
41202;BME280;26936;50.524;8.684;2023-11-21T12:55:23;99292.13;;;10.80;100.00
41202;BME280;26936;50.524;8.684;2023-11-21T12:57:50;99287.97;;;11.06;100.00
41202;BME280;26936;50.524;8.684;2023-11-21T13:00:18;99294.34;;;10.85;100.00
41202;BME280;26936;50.524;8.684;2023-11-21T13:02:57;99296.47;;;11.15;100.00
41202;BME280;26936;50.524;8.684;2023-11-21T13:05:27;99295.34;;;10.91;100.00
41202;BME280;26936;50.524;8.684;2023-11-21T13:07:57;99295.03;;;10.55;100.00
41202;BME280;26936;50.524;8.684;2023-11-21T13:10:25;99307.38;;;10.70;100.00
41202;BME280;26936;50.524;8.684;2023-11-21T13:12:52;99302.03;;;10.84;100.00
41202;BME280;26936;50.524;8.684;2023-11-21T13:15:18;99304.97;;;10.81;100.00
41202;BME280;26936;50.524;8.684;2023-11-21T13:17:45;99303.25;;;10.83;100.00
41202;BME280;26936;50.524;8.684;2023-11-21T13:20:11;99317.03;;;10.69;100.00
41202;BME280;26936;50.524;8.684;2023-11-21T13:22:52;99308.97;;;10.58;100.00
41202;BME280;26936;50.524;8.684;2023-11-21T13:25:24;99310.47;;;10.50;100.00